sensor_id;sensor_type;location;lat;lon;timestamp;temperature;humidity
22996;DHT22;11664;49.774;8.650;2023-12-07T00:01:19;3.00;99.90
22996;DHT22;11664;49.774;8.650;2023-12-07T00:03:50;3.00;99.90
22996;DHT22;11664;49.774;8.650;2023-12-07T00:06:19;3.00;99.90
22996;DHT22;11664;49.774;8.650;2023-12-07T00:08:47;3.10;99.90
22996;DHT22;11664;49.774;8.650;2023-12-07T00:11:19;3.20;99.90
22996;DHT22;11664;49.774;8.650;2023-12-07T00:13:47;3.20;99.90
22996;DHT22;11664;49.774;8.650;2023-12-07T00:16:16;3.20;99.90
22996;DHT22;11664;49.774;8.650;2023-12-07T00:18:45;3.20;99.90
22996;DHT22;11664;49.774;8.650;2023-12-07T00:21:12;3.30;99.90
22996;DHT22;11664;49.774;8.650;2023-12-07T00:23:41;3.30;99.90
22996;DHT22;11664;49.774;8.650;2023-12-07T00:26:06;3.30;99.90
22996;DHT22;11664;49.774;8.650;2023-12-07T00:28:35;3.30;99.90
22996;DHT22;11664;49.774;8.650;2023-12-07T00:31:22;3.20;99.90
22996;DHT22;11664;49.774;8.650;2023-12-07T00:33:47;3.20;99.90
22996;DHT22;11664;49.774;8.650;2023-12-07T00:36:19;3.10;99.90
22996;DHT22;11664;49.774;8.650;2023-12-07T00:38:51;3.00;99.90
22996;DHT22;11664;49.774;8.650;2023-12-07T00:41:23;2.90;99.90
22996;DHT22;11664;49.774;8.650;2023-12-07T00:43:48;2.90;99.90
22996;DHT22;11664;49.774;8.650;2023-12-07T00:46:20;2.80;99.90
22996;DHT22;11664;49.774;8.650;2023-12-07T00:48:45;2.80;99.90
22996;DHT22;11664;49.774;8.650;2023-12-07T00:51:20;2.80;99.90
22996;DHT22;11664;49.774;8.650;2023-12-07T00:53:48;2.60;99.90
22996;DHT22;11664;49.774;8.650;2023-12-07T00:56:14;2.60;99.90
22996;DHT22;11664;49.774;8.650;2023-12-07T00:58:42;2.50;99.90
22996;DHT22;11664;49.774;8.650;2023-12-07T01:01:20;2.40;99.90
22996;DHT22;11664;49.774;8.650;2023-12-07T01:03:46;2.30;99.90
22996;DHT22;11664;49.774;8.650;2023-12-07T01:06:14;2.40;99.90
22996;DHT22;11664;49.774;8.650;2023-12-07T01:08:42;2.30;99.90
22996;DHT22;11664;49.774;8.650;2023-12-07T01:11:08;2.30;99.90
22996;DHT22;11664;49.774;8.650;2023-12-07T01:13:34;2.30;99.90
22996;DHT22;11664;49.774;8.650;2023-12-07T01:16:04;2.10;99.90
22996;DHT22;11664;49.774;8.650;2023-12-07T01:18:35;2.10;99.90
22996;DHT22;11664;49.774;8.650;2023-12-07T01:21:01;2.10;99.90
22996;DHT22;11664;49.774;8.650;2023-12-07T01:23:29;1.90;99.90
22996;DHT22;11664;49.774;8.650;2023-12-07T01:25:55;1.90;99.90
22996;DHT22;11664;49.774;8.650;2023-12-07T01:28:30;1.70;99.90
22996;DHT22;11664;49.774;8.650;2023-12-07T01:31:05;1.70;99.90
22996;DHT22;11664;49.774;8.650;2023-12-07T01:33:30;1.80;99.90
22996;DHT22;11664;49.774;8.650;2023-12-07T01:35:59;1.70;99.90
22996;DHT22;11664;49.774;8.650;2023-12-07T01:38:30;1.60;99.90
22996;DHT22;11664;49.774;8.650;2023-12-07T01:41:02;1.50;99.90
22996;DHT22;11664;49.774;8.650;2023-12-07T01:43:31;1.60;99.90
22996;DHT22;11664;49.774;8.650;2023-12-07T01:45:57;1.50;99.90
22996;DHT22;11664;49.774;8.650;2023-12-07T01:48:29;1.50;99.90
22996;DHT22;11664;49.774;8.650;2023-12-07T01:51:01;1.40;99.90
22996;DHT22;11664;49.774;8.650;2023-12-07T01:53:33;1.40;99.90
22996;DHT22;11664;49.774;8.650;2023-12-07T01:56:02;1.40;99.90
22996;DHT22;11664;49.774;8.650;2023-12-07T01:58:29;1.30;99.90
22996;DHT22;11664;49.774;8.650;2023-12-07T02:00:55;1.30;99.90
22996;DHT22;11664;49.774;8.650;2023-12-07T02:03:20;1.20;99.90
22996;DHT22;11664;49.774;8.650;2023-12-07T02:05:51;1.20;99.90
22996;DHT22;11664;49.774;8.650;2023-12-07T02:08:19;1.10;99.90
22996;DHT22;11664;49.774;8.650;2023-12-07T02:10:54;1.20;99.90
22996;DHT22;11664;49.774;8.650;2023-12-07T02:13:40;1.10;99.90
22996;DHT22;11664;49.774;8.650;2023-12-07T02:16:13;1.10;99.90
22996;DHT22;11664;49.774;8.650;2023-12-07T02:18:50;1.20;99.90
22996;DHT22;11664;49.774;8.650;2023-12-07T02:21:41;1.00;99.90
22996;DHT22;11664;49.774;8.650;2023-12-07T02:24:26;0.90;99.90
22996;DHT22;11664;49.774;8.650;2023-12-07T02:26:53;0.80;99.90
22996;DHT22;11664;49.774;8.650;2023-12-07T02:29:22;0.80;99.90
22996;DHT22;11664;49.774;8.650;2023-12-07T02:32:06;0.80;99.90
22996;DHT22;11664;49.774;8.650;2023-12-07T02:34:37;0.80;99.90
22996;DHT22;11664;49.774;8.650;2023-12-07T02:37:06;0.80;99.90
22996;DHT22;11664;49.774;8.650;2023-12-07T02:39:32;0.80;99.90
22996;DHT22;11664;49.774;8.650;2023-12-07T02:42:04;1.00;99.90
22996;DHT22;11664;49.774;8.650;2023-12-07T02:44:34;1.00;99.90
22996;DHT22;11664;49.774;8.650;2023-12-07T02:47:03;0.80;99.90
22996;DHT22;11664;49.774;8.650;2023-12-07T02:49:31;0.70;99.90
22996;DHT22;11664;49.774;8.650;2023-12-07T02:52:00;0.70;99.90
22996;DHT22;11664;49.774;8.650;2023-12-07T02:54:25;0.70;99.90
22996;DHT22;11664;49.774;8.650;2023-12-07T02:56:52;0.60;99.90
22996;DHT22;11664;49.774;8.650;2023-12-07T02:59:36;0.60;99.90
22996;DHT22;11664;49.774;8.650;2023-12-07T03:02:02;0.60;99.90
22996;DHT22;11664;49.774;8.650;2023-12-07T03:04:27;0.60;99.90
22996;DHT22;11664;49.774;8.650;2023-12-07T03:06:53;0.50;99.90
22996;DHT22;11664;49.774;8.650;2023-12-07T03:09:18;0.50;99.90
22996;DHT22;11664;49.774;8.650;2023-12-07T03:11:44;0.60;99.90
22996;DHT22;11664;49.774;8.650;2023-12-07T03:14:12;0.50;99.90
22996;DHT22;11664;49.774;8.650;2023-12-07T03:16:44;0.60;99.90
22996;DHT22;11664;49.774;8.650;2023-12-07T03:19:16;0.60;99.90
22996;DHT22;11664;49.774;8.650;2023-12-07T03:21:42;0.80;99.90
22996;DHT22;11664;49.774;8.650;2023-12-07T03:24:14;0.50;99.90
22996;DHT22;11664;49.774;8.650;2023-12-07T03:26:39;0.40;99.90
22996;DHT22;11664;49.774;8.650;2023-12-07T03:29:05;0.30;99.90
22996;DHT22;11664;49.774;8.650;2023-12-07T03:31:37;0.30;99.90
22996;DHT22;11664;49.774;8.650;2023-12-07T03:34:02;0.20;99.90
22996;DHT22;11664;49.774;8.650;2023-12-07T03:36:33;0.10;99.90
22996;DHT22;11664;49.774;8.650;2023-12-07T03:39:02;0.10;99.90
22996;DHT22;11664;49.774;8.650;2023-12-07T03:41:30;0.20;99.90
22996;DHT22;11664;49.774;8.650;2023-12-07T03:43:55;0.20;99.90
22996;DHT22;11664;49.774;8.650;2023-12-07T03:46:21;0.20;99.90
22996;DHT22;11664;49.774;8.650;2023-12-07T03:48:52;0.40;99.90
22996;DHT22;11664;49.774;8.650;2023-12-07T03:51:18;0.30;99.90
22996;DHT22;11664;49.774;8.650;2023-12-07T03:53:44;0.40;99.90
22996;DHT22;11664;49.774;8.650;2023-12-07T03:56:09;0.30;99.90
22996;DHT22;11664;49.774;8.650;2023-12-07T03:58:35;0.20;99.90
22996;DHT22;11664;49.774;8.650;2023-12-07T04:01:04;0.10;99.90
22996;DHT22;11664;49.774;8.650;2023-12-07T04:03:35;0.10;99.90
22996;DHT22;11664;49.774;8.650;2023-12-07T04:06:01;0.20;99.90
22996;DHT22;11664;49.774;8.650;2023-12-07T04:08:30;0.20;99.90
22996;DHT22;11664;49.774;8.650;2023-12-07T04:10:56;0.20;99.90
22996;DHT22;11664;49.774;8.650;2023-12-07T04:13:24;0.20;99.90
22996;DHT22;11664;49.774;8.650;2023-12-07T04:15:56;0.10;99.90
22996;DHT22;11664;49.774;8.650;2023-12-07T04:18:21;0.00;99.90
22996;DHT22;11664;49.774;8.650;2023-12-07T04:20:50;0.20;99.90
22996;DHT22;11664;49.774;8.650;2023-12-07T04:23:19;0.20;99.90
22996;DHT22;11664;49.774;8.650;2023-12-07T04:25:44;0.40;99.90
22996;DHT22;11664;49.774;8.650;2023-12-07T04:28:25;0.30;99.90
22996;DHT22;11664;49.774;8.650;2023-12-07T04:30:56;0.10;99.90
22996;DHT22;11664;49.774;8.650;2023-12-07T04:33:22;0.10;99.90
22996;DHT22;11664;49.774;8.650;2023-12-07T04:35:47;0.30;99.90
22996;DHT22;11664;49.774;8.650;2023-12-07T04:38:16;0.30;99.90
22996;DHT22;11664;49.774;8.650;2023-12-07T04:40:47;0.30;99.90
22996;DHT22;11664;49.774;8.650;2023-12-07T04:43:16;0.30;99.90
22996;DHT22;11664;49.774;8.650;2023-12-07T04:45:44;0.20;99.90
22996;DHT22;11664;49.774;8.650;2023-12-07T04:48:16;0.10;99.90
22996;DHT22;11664;49.774;8.650;2023-12-07T04:50:41;0.10;99.90
22996;DHT22;11664;49.774;8.650;2023-12-07T04:53:07;0.10;99.90
22996;DHT22;11664;49.774;8.650;2023-12-07T04:55:39;0.00;99.90
22996;DHT22;11664;49.774;8.650;2023-12-07T04:58:04;0.20;99.90
22996;DHT22;11664;49.774;8.650;2023-12-07T05:00:30;0.20;99.90
22996;DHT22;11664;49.774;8.650;2023-12-07T05:02:58;0.10;99.90
22996;DHT22;11664;49.774;8.650;2023-12-07T05:05:30;0.10;99.90
22996;DHT22;11664;49.774;8.650;2023-12-07T05:08:03;0.20;99.90
22996;DHT22;11664;49.774;8.650;2023-12-07T05:10:37;0.40;99.90
22996;DHT22;11664;49.774;8.650;2023-12-07T05:13:03;0.40;99.90
22996;DHT22;11664;49.774;8.650;2023-12-07T05:15:34;0.50;99.90
22996;DHT22;11664;49.774;8.650;2023-12-07T05:18:03;0.60;99.90
22996;DHT22;11664;49.774;8.650;2023-12-07T05:20:41;0.70;99.90
22996;DHT22;11664;49.774;8.650;2023-12-07T05:23:08;0.80;99.90
22996;DHT22;11664;49.774;8.650;2023-12-07T05:25:40;1.00;99.90
22996;DHT22;11664;49.774;8.650;2023-12-07T05:28:05;1.10;99.90
22996;DHT22;11664;49.774;8.650;2023-12-07T05:30:49;1.10;99.90
22996;DHT22;11664;49.774;8.650;2023-12-07T05:33:15;1.20;99.90
22996;DHT22;11664;49.774;8.650;2023-12-07T05:35:41;1.20;99.90
22996;DHT22;11664;49.774;8.650;2023-12-07T05:38:06;1.30;99.90
22996;DHT22;11664;49.774;8.650;2023-12-07T05:40:35;1.30;99.90
22996;DHT22;11664;49.774;8.650;2023-12-07T05:43:01;1.30;99.90
22996;DHT22;11664;49.774;8.650;2023-12-07T05:45:26;1.40;99.90
22996;DHT22;11664;49.774;8.650;2023-12-07T05:47:55;1.40;99.90
22996;DHT22;11664;49.774;8.650;2023-12-07T05:50:23;1.30;99.90
22996;DHT22;11664;49.774;8.650;2023-12-07T05:52:52;1.50;99.90
22996;DHT22;11664;49.774;8.650;2023-12-07T05:55:39;1.30;99.90
22996;DHT22;11664;49.774;8.650;2023-12-07T05:58:04;1.30;99.90
22996;DHT22;11664;49.774;8.650;2023-12-07T06:00:33;1.30;99.90
22996;DHT22;11664;49.774;8.650;2023-12-07T06:02:58;1.20;99.90
22996;DHT22;11664;49.774;8.650;2023-12-07T06:05:24;1.20;99.90
22996;DHT22;11664;49.774;8.650;2023-12-07T06:07:59;1.10;99.90
22996;DHT22;11664;49.774;8.650;2023-12-07T06:10:25;1.10;99.90
22996;DHT22;11664;49.774;8.650;2023-12-07T06:13:00;1.10;99.90
22996;DHT22;11664;49.774;8.650;2023-12-07T06:15:29;1.20;99.90
22996;DHT22;11664;49.774;8.650;2023-12-07T06:17:55;1.20;99.90
22996;DHT22;11664;49.774;8.650;2023-12-07T06:20:27;1.10;99.90
22996;DHT22;11664;49.774;8.650;2023-12-07T06:22:52;1.20;99.90
22996;DHT22;11664;49.774;8.650;2023-12-07T06:25:18;1.20;99.90
22996;DHT22;11664;49.774;8.650;2023-12-07T06:27:43;1.20;99.90
22996;DHT22;11664;49.774;8.650;2023-12-07T06:30:10;1.30;99.90
22996;DHT22;11664;49.774;8.650;2023-12-07T06:32:36;1.30;99.90
22996;DHT22;11664;49.774;8.650;2023-12-07T06:35:05;1.30;99.90
22996;DHT22;11664;49.774;8.650;2023-12-07T06:37:46;1.30;99.90
22996;DHT22;11664;49.774;8.650;2023-12-07T06:40:24;1.30;99.90
22996;DHT22;11664;49.774;8.650;2023-12-07T06:42:59;1.30;99.90
22996;DHT22;11664;49.774;8.650;2023-12-07T06:45:24;1.20;99.90
22996;DHT22;11664;49.774;8.650;2023-12-07T06:47:56;1.20;99.90
22996;DHT22;11664;49.774;8.650;2023-12-07T06:50:21;1.20;99.90
22996;DHT22;11664;49.774;8.650;2023-12-07T06:52:53;1.10;99.90
22996;DHT22;11664;49.774;8.650;2023-12-07T06:55:18;1.10;99.90
22996;DHT22;11664;49.774;8.650;2023-12-07T06:58:00;1.00;99.90
22996;DHT22;11664;49.774;8.650;2023-12-07T07:00:28;0.90;99.90
22996;DHT22;11664;49.774;8.650;2023-12-07T07:03:00;0.80;99.90
22996;DHT22;11664;49.774;8.650;2023-12-07T07:05:32;0.80;99.90
22996;DHT22;11664;49.774;8.650;2023-12-07T07:08:00;0.80;99.90
22996;DHT22;11664;49.774;8.650;2023-12-07T07:10:26;0.70;99.90
22996;DHT22;11664;49.774;8.650;2023-12-07T07:13:00;0.80;99.90
22996;DHT22;11664;49.774;8.650;2023-12-07T07:15:37;0.80;99.90
22996;DHT22;11664;49.774;8.650;2023-12-07T07:18:03;0.70;99.90
22996;DHT22;11664;49.774;8.650;2023-12-07T07:20:31;0.80;99.90
22996;DHT22;11664;49.774;8.650;2023-12-07T07:23:00;0.80;99.90
22996;DHT22;11664;49.774;8.650;2023-12-07T07:25:25;0.80;99.90
22996;DHT22;11664;49.774;8.650;2023-12-07T07:28:03;0.90;99.90
22996;DHT22;11664;49.774;8.650;2023-12-07T07:30:35;0.80;99.90
22996;DHT22;11664;49.774;8.650;2023-12-07T07:33:04;0.90;99.90
22996;DHT22;11664;49.774;8.650;2023-12-07T07:35:35;0.90;99.90
22996;DHT22;11664;49.774;8.650;2023-12-07T07:38:01;1.00;99.90
22996;DHT22;11664;49.774;8.650;2023-12-07T07:40:35;1.00;99.90
22996;DHT22;11664;49.774;8.650;2023-12-07T07:43:01;1.10;99.90
22996;DHT22;11664;49.774;8.650;2023-12-07T07:45:27;1.10;99.90
22996;DHT22;11664;49.774;8.650;2023-12-07T07:47:56;1.20;99.90
22996;DHT22;11664;49.774;8.650;2023-12-07T07:50:25;1.20;99.90
22996;DHT22;11664;49.774;8.650;2023-12-07T07:52:50;1.20;99.90
22996;DHT22;11664;49.774;8.650;2023-12-07T07:55:19;1.20;99.90
22996;DHT22;11664;49.774;8.650;2023-12-07T07:57:56;1.20;99.90
22996;DHT22;11664;49.774;8.650;2023-12-07T08:00:34;1.20;99.90
22996;DHT22;11664;49.774;8.650;2023-12-07T08:03:03;1.10;99.90
22996;DHT22;11664;49.774;8.650;2023-12-07T08:05:34;1.10;99.90
22996;DHT22;11664;49.774;8.650;2023-12-07T08:08:01;1.10;99.90
22996;DHT22;11664;49.774;8.650;2023-12-07T08:10:26;1.00;99.90
22996;DHT22;11664;49.774;8.650;2023-12-07T08:12:58;1.00;99.90
22996;DHT22;11664;49.774;8.650;2023-12-07T08:15:33;0.90;99.90
22996;DHT22;11664;49.774;8.650;2023-12-07T08:18:02;0.90;99.90
22996;DHT22;11664;49.774;8.650;2023-12-07T08:20:34;0.90;99.90
22996;DHT22;11664;49.774;8.650;2023-12-07T08:23:00;0.90;99.90
22996;DHT22;11664;49.774;8.650;2023-12-07T08:25:28;0.90;99.90
22996;DHT22;11664;49.774;8.650;2023-12-07T08:28:00;0.90;99.90
22996;DHT22;11664;49.774;8.650;2023-12-07T08:30:35;0.90;99.90
22996;DHT22;11664;49.774;8.650;2023-12-07T08:33:04;0.90;99.90
22996;DHT22;11664;49.774;8.650;2023-12-07T08:35:29;1.00;99.90
22996;DHT22;11664;49.774;8.650;2023-12-07T08:38:01;1.00;99.90
22996;DHT22;11664;49.774;8.650;2023-12-07T08:40:29;1.10;99.90
22996;DHT22;11664;49.774;8.650;2023-12-07T08:42:55;1.00;99.90
22996;DHT22;11664;49.774;8.650;2023-12-07T08:45:23;1.10;99.90
22996;DHT22;11664;49.774;8.650;2023-12-07T08:47:52;1.20;99.90
22996;DHT22;11664;49.774;8.650;2023-12-07T08:50:24;1.30;99.90
22996;DHT22;11664;49.774;8.650;2023-12-07T08:52:52;1.30;99.90
22996;DHT22;11664;49.774;8.650;2023-12-07T08:55:18;1.30;99.90
22996;DHT22;11664;49.774;8.650;2023-12-07T08:57:44;1.30;99.90
22996;DHT22;11664;49.774;8.650;2023-12-07T09:00:16;1.30;99.90
22996;DHT22;11664;49.774;8.650;2023-12-07T09:02:41;1.40;99.90
22996;DHT22;11664;49.774;8.650;2023-12-07T09:05:10;1.50;99.90
22996;DHT22;11664;49.774;8.650;2023-12-07T09:07:35;1.60;99.90
22996;DHT22;11664;49.774;8.650;2023-12-07T09:10:05;1.60;99.90
22996;DHT22;11664;49.774;8.650;2023-12-07T09:12:32;1.70;99.90
22996;DHT22;11664;49.774;8.650;2023-12-07T09:15:04;1.70;99.90
22996;DHT22;11664;49.774;8.650;2023-12-07T09:17:30;1.80;99.90
22996;DHT22;11664;49.774;8.650;2023-12-07T09:20:04;1.90;99.90
22996;DHT22;11664;49.774;8.650;2023-12-07T09:22:30;1.90;99.90
22996;DHT22;11664;49.774;8.650;2023-12-07T09:24:56;2.10;99.90
22996;DHT22;11664;49.774;8.650;2023-12-07T09:27:27;2.10;99.90
22996;DHT22;11664;49.774;8.650;2023-12-07T09:29:56;2.10;99.90
22996;DHT22;11664;49.774;8.650;2023-12-07T09:32:21;2.10;99.90
22996;DHT22;11664;49.774;8.650;2023-12-07T09:34:47;2.20;99.90
22996;DHT22;11664;49.774;8.650;2023-12-07T09:37:19;2.20;99.90
22996;DHT22;11664;49.774;8.650;2023-12-07T09:39:45;2.30;99.90
22996;DHT22;11664;49.774;8.650;2023-12-07T09:42:17;2.30;99.90
22996;DHT22;11664;49.774;8.650;2023-12-07T09:44:51;2.40;99.90
22996;DHT22;11664;49.774;8.650;2023-12-07T09:47:17;2.40;99.90
22996;DHT22;11664;49.774;8.650;2023-12-07T09:49:56;2.50;99.90
22996;DHT22;11664;49.774;8.650;2023-12-07T09:52:23;2.60;99.90
22996;DHT22;11664;49.774;8.650;2023-12-07T09:54:59;2.80;99.90
22996;DHT22;11664;49.774;8.650;2023-12-07T09:57:27;3.00;99.90
22996;DHT22;11664;49.774;8.650;2023-12-07T09:59:54;3.10;99.90
22996;DHT22;11664;49.774;8.650;2023-12-07T10:02:22;3.10;99.90
22996;DHT22;11664;49.774;8.650;2023-12-07T10:05:15;3.00;99.90
22996;DHT22;11664;49.774;8.650;2023-12-07T10:07:50;3.00;99.90
22996;DHT22;11664;49.774;8.650;2023-12-07T10:10:18;2.90;99.90
22996;DHT22;11664;49.774;8.650;2023-12-07T10:12:48;2.90;99.90
22996;DHT22;11664;49.774;8.650;2023-12-07T10:18:23;2.80;99.90
22996;DHT22;11664;49.774;8.650;2023-12-07T10:20:49;2.70;99.90
22996;DHT22;11664;49.774;8.650;2023-12-07T10:23:23;2.70;99.90
22996;DHT22;11664;49.774;8.650;2023-12-07T10:25:58;2.80;99.90
22996;DHT22;11664;49.774;8.650;2023-12-07T10:28:31;2.80;99.90
22996;DHT22;11664;49.774;8.650;2023-12-07T10:30:57;2.70;99.90
22996;DHT22;11664;49.774;8.650;2023-12-07T10:33:35;2.70;99.90
22996;DHT22;11664;49.774;8.650;2023-12-07T10:36:03;2.70;99.90
22996;DHT22;11664;49.774;8.650;2023-12-07T10:38:29;2.70;99.90
22996;DHT22;11664;49.774;8.650;2023-12-07T10:41:04;2.60;99.90
22996;DHT22;11664;49.774;8.650;2023-12-07T10:43:43;2.60;99.90
22996;DHT22;11664;49.774;8.650;2023-12-07T10:46:21;2.60;99.90
22996;DHT22;11664;49.774;8.650;2023-12-07T10:49:01;2.40;99.90
22996;DHT22;11664;49.774;8.650;2023-12-07T10:55:20;2.30;99.90
22996;DHT22;11664;49.774;8.650;2023-12-07T10:57:50;2.20;99.90
22996;DHT22;11664;49.774;8.650;2023-12-07T11:00:17;2.10;99.90
22996;DHT22;11664;49.774;8.650;2023-12-07T11:02:47;1.90;99.90
22996;DHT22;11664;49.774;8.650;2023-12-07T11:05:13;2.00;99.90
22996;DHT22;11664;49.774;8.650;2023-12-07T11:07:54;1.90;99.90
22996;DHT22;11664;49.774;8.650;2023-12-07T11:16:45;1.90;99.90
22996;DHT22;11664;49.774;8.650;2023-12-07T11:21:56;2.10;99.90
22996;DHT22;11664;49.774;8.650;2023-12-07T11:24:27;2.20;99.90
22996;DHT22;11664;49.774;8.650;2023-12-07T11:26:53;2.10;99.90
22996;DHT22;11664;49.774;8.650;2023-12-07T11:29:35;2.10;99.90
22996;DHT22;11664;49.774;8.650;2023-12-07T11:32:01;2.00;99.90
22996;DHT22;11664;49.774;8.650;2023-12-07T11:34:39;1.90;99.90
22996;DHT22;11664;49.774;8.650;2023-12-07T11:37:06;1.90;99.90
22996;DHT22;11664;49.774;8.650;2023-12-07T11:39:36;2.00;99.90
22996;DHT22;11664;49.774;8.650;2023-12-07T11:42:14;2.10;99.90
22996;DHT22;11664;49.774;8.650;2023-12-07T11:44:41;2.10;99.90
22996;DHT22;11664;49.774;8.650;2023-12-07T11:47:08;2.20;99.90
22996;DHT22;11664;49.774;8.650;2023-12-07T11:49:37;2.30;99.90
22996;DHT22;11664;49.774;8.650;2023-12-07T11:52:19;2.20;99.90
22996;DHT22;11664;49.774;8.650;2023-12-07T11:55:00;2.20;99.90
22996;DHT22;11664;49.774;8.650;2023-12-07T11:57:26;2.20;99.90
22996;DHT22;11664;49.774;8.650;2023-12-07T11:59:58;2.10;99.90
22996;DHT22;11664;49.774;8.650;2023-12-07T12:02:26;2.10;99.90
22996;DHT22;11664;49.774;8.650;2023-12-07T12:05:01;2.10;99.90
22996;DHT22;11664;49.774;8.650;2023-12-07T12:07:35;2.00;99.90
22996;DHT22;11664;49.774;8.650;2023-12-07T12:10:07;2.10;99.90
22996;DHT22;11664;49.774;8.650;2023-12-07T12:12:42;2.20;99.90
22996;DHT22;11664;49.774;8.650;2023-12-07T12:15:07;2.40;99.90
22996;DHT22;11664;49.774;8.650;2023-12-07T12:17:40;2.30;99.90
22996;DHT22;11664;49.774;8.650;2023-12-07T12:20:25;2.00;99.90
22996;DHT22;11664;49.774;8.650;2023-12-07T12:22:51;2.20;99.90
22996;DHT22;11664;49.774;8.650;2023-12-07T12:25:30;2.20;99.90
22996;DHT22;11664;49.774;8.650;2023-12-07T12:28:05;2.20;99.90
22996;DHT22;11664;49.774;8.650;2023-12-07T12:30:35;2.20;99.90
22996;DHT22;11664;49.774;8.650;2023-12-07T12:33:04;2.20;99.90
22996;DHT22;11664;49.774;8.650;2023-12-07T12:35:33;2.30;99.90
22996;DHT22;11664;49.774;8.650;2023-12-07T12:38:09;2.30;99.90
22996;DHT22;11664;49.774;8.650;2023-12-07T12:40:35;2.50;99.90
22996;DHT22;11664;49.774;8.650;2023-12-07T12:43:01;2.50;99.90
22996;DHT22;11664;49.774;8.650;2023-12-07T12:45:30;2.50;99.90
22996;DHT22;11664;49.774;8.650;2023-12-07T12:48:16;2.50;99.90
22996;DHT22;11664;49.774;8.650;2023-12-07T12:50:51;2.50;99.90
22996;DHT22;11664;49.774;8.650;2023-12-07T12:53:16;2.60;99.90
22996;DHT22;11664;49.774;8.650;2023-12-07T12:55:45;2.70;99.90
22996;DHT22;11664;49.774;8.650;2023-12-07T12:58:46;2.70;99.90
22996;DHT22;11664;49.774;8.650;2023-12-07T13:01:16;2.70;99.90
22996;DHT22;11664;49.774;8.650;2023-12-07T13:03:49;2.80;99.90
22996;DHT22;11664;49.774;8.650;2023-12-07T13:06:16;2.80;99.90
22996;DHT22;11664;49.774;8.650;2023-12-07T13:08:45;2.80;99.90
22996;DHT22;11664;49.774;8.650;2023-12-07T13:11:26;2.80;99.90
22996;DHT22;11664;49.774;8.650;2023-12-07T13:13:51;2.80;99.90
22996;DHT22;11664;49.774;8.650;2023-12-07T13:16:26;2.80;99.90
22996;DHT22;11664;49.774;8.650;2023-12-07T13:18:52;2.80;99.90
22996;DHT22;11664;49.774;8.650;2023-12-07T13:21:21;3.00;99.90
22996;DHT22;11664;49.774;8.650;2023-12-07T13:23:47;3.00;99.90
22996;DHT22;11664;49.774;8.650;2023-12-07T13:26:12;3.10;99.90
22996;DHT22;11664;49.774;8.650;2023-12-07T13:28:38;3.00;99.90
22996;DHT22;11664;49.774;8.650;2023-12-07T13:31:03;3.00;99.90
22996;DHT22;11664;49.774;8.650;2023-12-07T13:33:29;2.90;99.90
22996;DHT22;11664;49.774;8.650;2023-12-07T13:36:07;3.00;99.90
22996;DHT22;11664;49.774;8.650;2023-12-07T13:38:36;3.00;99.90
22996;DHT22;11664;49.774;8.650;2023-12-07T13:41:02;2.90;99.90
22996;DHT22;11664;49.774;8.650;2023-12-07T13:43:28;3.00;99.90
22996;DHT22;11664;49.774;8.650;2023-12-07T13:45:57;3.00;99.90
22996;DHT22;11664;49.774;8.650;2023-12-07T13:48:24;3.00;99.90
22996;DHT22;11664;49.774;8.650;2023-12-07T13:50:52;3.00;99.90
22996;DHT22;11664;49.774;8.650;2023-12-07T13:53:18;3.00;99.90
22996;DHT22;11664;49.774;8.650;2023-12-07T13:55:45;3.00;99.90
22996;DHT22;11664;49.774;8.650;2023-12-07T13:58:17;3.00;99.90
22996;DHT22;11664;49.774;8.650;2023-12-07T14:00:43;2.90;99.90
22996;DHT22;11664;49.774;8.650;2023-12-07T14:03:17;2.90;99.90
22996;DHT22;11664;49.774;8.650;2023-12-07T14:05:46;2.90;99.90
22996;DHT22;11664;49.774;8.650;2023-12-07T14:08:15;2.80;99.90
22996;DHT22;11664;49.774;8.650;2023-12-07T14:11:03;2.90;99.90
22996;DHT22;11664;49.774;8.650;2023-12-07T14:13:32;2.80;99.90
22996;DHT22;11664;49.774;8.650;2023-12-07T14:15:57;2.80;99.90
22996;DHT22;11664;49.774;8.650;2023-12-07T14:18:22;2.80;99.90
22996;DHT22;11664;49.774;8.650;2023-12-07T14:20:48;2.80;99.90
22996;DHT22;11664;49.774;8.650;2023-12-07T14:23:17;2.80;99.90
22996;DHT22;11664;49.774;8.650;2023-12-07T14:25:42;2.70;99.90
22996;DHT22;11664;49.774;8.650;2023-12-07T14:28:25;2.70;99.90
22996;DHT22;11664;49.774;8.650;2023-12-07T14:30:53;2.60;99.90
22996;DHT22;11664;49.774;8.650;2023-12-07T14:33:22;2.50;99.90
22996;DHT22;11664;49.774;8.650;2023-12-07T14:35:47;2.60;99.90
22996;DHT22;11664;49.774;8.650;2023-12-07T14:38:14;2.60;99.90
22996;DHT22;11664;49.774;8.650;2023-12-07T14:40:40;2.60;99.90
22996;DHT22;11664;49.774;8.650;2023-12-07T14:43:17;2.60;99.90
22996;DHT22;11664;49.774;8.650;2023-12-07T14:45:43;2.60;99.90
22996;DHT22;11664;49.774;8.650;2023-12-07T14:48:12;2.60;99.90
22996;DHT22;11664;49.774;8.650;2023-12-07T14:50:38;2.60;99.90
22996;DHT22;11664;49.774;8.650;2023-12-07T14:53:07;2.50;99.90
22996;DHT22;11664;49.774;8.650;2023-12-07T14:55:35;2.40;99.90
22996;DHT22;11664;49.774;8.650;2023-12-07T14:58:01;2.40;99.90
22996;DHT22;11664;49.774;8.650;2023-12-07T15:00:29;2.40;99.90
22996;DHT22;11664;49.774;8.650;2023-12-07T15:03:01;2.40;99.90
22996;DHT22;11664;49.774;8.650;2023-12-07T15:05:30;2.40;99.90
22996;DHT22;11664;49.774;8.650;2023-12-07T15:08:05;2.40;99.90
22996;DHT22;11664;49.774;8.650;2023-12-07T15:10:33;2.40;99.90
22996;DHT22;11664;49.774;8.650;2023-12-07T15:13:04;2.50;99.90
22996;DHT22;11664;49.774;8.650;2023-12-07T15:15:31;2.40;99.90
22996;DHT22;11664;49.774;8.650;2023-12-07T15:17:56;2.30;99.90
22996;DHT22;11664;49.774;8.650;2023-12-07T15:20:25;2.20;99.90
22996;DHT22;11664;49.774;8.650;2023-12-07T15:22:56;2.20;99.90
22996;DHT22;11664;49.774;8.650;2023-12-07T15:25:22;2.20;99.90
22996;DHT22;11664;49.774;8.650;2023-12-07T15:27:48;2.20;99.90
22996;DHT22;11664;49.774;8.650;2023-12-07T15:30:19;2.10;99.90
22996;DHT22;11664;49.774;8.650;2023-12-07T15:32:54;2.00;99.90
22996;DHT22;11664;49.774;8.650;2023-12-07T15:35:22;1.80;99.90
22996;DHT22;11664;49.774;8.650;2023-12-07T15:37:48;1.60;99.90
22996;DHT22;11664;49.774;8.650;2023-12-07T15:40:17;1.60;99.90
22996;DHT22;11664;49.774;8.650;2023-12-07T15:42:42;1.60;99.90
22996;DHT22;11664;49.774;8.650;2023-12-07T15:45:23;1.60;99.90
22996;DHT22;11664;49.774;8.650;2023-12-07T15:47:52;1.60;99.90
22996;DHT22;11664;49.774;8.650;2023-12-07T15:50:20;1.60;99.90
22996;DHT22;11664;49.774;8.650;2023-12-07T15:52:52;1.70;99.90
22996;DHT22;11664;49.774;8.650;2023-12-07T15:55:21;1.70;99.90
22996;DHT22;11664;49.774;8.650;2023-12-07T15:57:46;1.70;99.90
22996;DHT22;11664;49.774;8.650;2023-12-07T16:00:30;1.70;99.90
22996;DHT22;11664;49.774;8.650;2023-12-07T16:02:56;1.80;99.90
22996;DHT22;11664;49.774;8.650;2023-12-07T16:05:36;1.90;99.90
22996;DHT22;11664;49.774;8.650;2023-12-07T16:08:05;1.80;99.90
22996;DHT22;11664;49.774;8.650;2023-12-07T16:10:30;1.80;99.90
22996;DHT22;11664;49.774;8.650;2023-12-07T16:13:02;1.90;99.90
22996;DHT22;11664;49.774;8.650;2023-12-07T16:15:32;1.90;99.90
22996;DHT22;11664;49.774;8.650;2023-12-07T16:18:01;1.90;99.90